Time;durP1;ratioP1;P1;durP2;ratioP2;P2;SDS_P1;SDS_P2;PMS_P1;PMS_P2;Temp;Humidity;BMP_temperature;BMP_pressure;BME280_temperature;BME280_humidity;BME280_pressure;Samples;Min_cycle;Max_cycle;Signal;HPM_P1;HPM_P2
2022/04/04 00:01:58;;;;;;;13.05;6.65;;;;;;;1.52;99.62;95187.06;5093551;28;20106;-47
2022/04/04 00:04:24;;;;;;;12.18;6.30;;;;;;;1.46;99.13;95172.34;5094677;28;20113;-44
2022/04/04 00:06:51;;;;;;;14.43;8.07;;;;;;;1.47;99.21;95173.13;5094388;28;20047;-48
2022/04/04 00:09:18;;;;;;;13.70;7.60;;;;;;;1.44;98.56;95178.59;5096183;28;20058;-49
2022/04/04 00:11:45;;;;;;;18.52;7.35;;;;;;;1.48;98.75;95179.88;5094561;28;20058;-46
2022/04/04 00:14:12;;;;;;;12.57;6.25;;;;;;;1.42;98.86;95170.25;5094238;28;20497;-49
2022/04/04 00:16:39;;;;;;;16.85;8.77;;;;;;;1.46;99.37;95171.53;5094560;28;20043;-46
2022/04/04 00:19:06;;;;;;;11.13;6.13;;;;;;;1.45;99.77;95175.06;5095119;28;20438;-48
2022/04/04 00:21:33;;;;;;;12.60;6.90;;;;;;;1.49;99.40;95160.94;5094132;28;20478;-46
2022/04/04 00:24:00;;;;;;;12.70;7.57;;;;;;;1.46;98.90;95166.38;5094839;28;20048;-44
2022/04/04 00:26:26;;;;;;;12.60;7.40;;;;;;;1.50;98.87;95183.09;5091902;28;20097;-47
2022/04/04 00:28:53;;;;;;;15.13;7.30;;;;;;;1.51;99.31;95180.34;5093520;28;20040;-47
2022/04/04 00:31:20;;;;;;;12.10;6.30;;;;;;;1.49;99.49;95181.47;5092679;28;20043;-45
2022/04/04 00:33:47;;;;;;;12.85;7.88;;;;;;;1.49;99.69;95184.03;5093069;28;20113;-45
2022/04/04 00:36:14;;;;;;;12.85;7.30;;;;;;;1.49;99.28;95177.13;5093502;28;20078;-44
2022/04/04 00:38:41;;;;;;;19.95;8.05;;;;;;;1.42;99.11;95165.91;5092616;28;20386;-47
2022/04/04 00:41:13;;;;;;;12.90;7.82;;;;;;;1.42;98.58;95181.31;5092605;28;20097;-46
2022/04/04 00:43:40;;;;;;;10.10;4.80;;;;;;;1.45;98.20;95175.88;5092995;28;20055;-46
2022/04/04 00:46:07;;;;;;;9.48;4.68;;;;;;;1.43;98.01;95174.44;5093018;28;20382;-51
2022/04/04 00:48:34;;;;;;;12.57;6.80;;;;;;;1.40;97.99;95174.75;5092975;28;20040;-49
2022/04/04 00:51:02;;;;;;;15.77;7.65;;;;;;;1.37;98.85;95172.50;5093031;28;20046;-48
2022/04/04 00:53:30;;;;;;;12.35;7.25;;;;;;;1.42;99.48;95185.66;5092575;28;20036;-45
2022/04/04 00:55:58;;;;;;;12.77;7.65;;;;;;;1.45;98.81;95180.19;5093032;28;20035;-47
2022/04/04 00:58:30;;;;;;;14.07;7.18;;;;;;;1.44;99.07;95181.16;5090918;28;20044;-44
2022/04/04 01:00:58;;;;;;;11.82;6.45;;;;;;;1.42;98.16;95190.78;5093826;28;20043;-45
2022/04/04 01:03:26;;;;;;;14.43;6.40;;;;;;;1.39;98.58;95181.66;5092738;28;20528;-48
2022/04/04 01:05:55;;;;;;;12.60;5.57;;;;;;;1.32;98.63;95170.47;5093810;28;20101;-46
2022/04/04 01:08:22;;;;;;;11.88;6.60;;;;;;;1.31;98.20;95190.19;5093632;28;20048;-46
2022/04/04 01:10:49;;;;;;;10.60;4.72;;;;;;;1.34;98.29;95182.16;5092224;28;20047;-46
2022/04/04 01:13:16;;;;;;;11.40;6.75;;;;;;;1.24;98.51;95179.00;5092389;28;20052;-46
2022/04/04 01:15:44;;;;;;;12.27;6.90;;;;;;;1.22;98.50;95175.75;5092309;28;20049;-45
2022/04/04 01:18:11;;;;;;;13.52;6.43;;;;;;;1.24;99.32;95181.56;5093418;28;20054;-44
2022/04/04 01:20:38;;;;;;;10.25;6.43;;;;;;;1.20;97.65;95177.69;5091572;28;20154;-47
2022/04/04 01:23:06;;;;;;;11.15;6.53;;;;;;;1.07;98.60;95167.16;5091601;28;20043;-50
2022/04/04 01:25:35;;;;;;;13.20;6.60;;;;;;;1.13;99.06;95181.88;5091753;28;20402;-45
2022/04/04 01:28:03;;;;;;;9.77;5.80;;;;;;;1.11;99.23;95178.69;5090130;28;20044;-47
2022/04/04 01:30:32;;;;;;;10.90;4.47;;;;;;;1.16;99.36;95175.63;5091647;28;20047;-48
2022/04/04 01:33:00;;;;;;;12.93;6.85;;;;;;;1.10;99.78;95172.75;5091376;28;20047;-49
2022/04/04 01:35:27;;;;;;;12.60;6.10;;;;;;;1.11;99.90;95178.69;5091911;28;20428;-49
2022/04/04 01:37:54;;;;;;;9.60;5.20;;;;;;;1.13;99.64;95181.88;5091183;28;20573;-45
2022/04/04 01:40:22;;;;;;;14.48;7.53;;;;;;;1.04;99.77;95188.00;5091405;28;20573;-46
2022/04/04 01:42:52;;;;;;;10.63;5.82;;;;;;;1.05;100.00;95187.84;5091580;28;20052;-46
2022/04/04 01:46:23;;;;;;;9.30;5.93;;;;;;;1.08;100.00;95184.94;5091706;28;20475;-44
2022/04/04 01:48:07;;;;;;;13.82;6.72;;;;;;;1.12;100.00;95180.28;5091281;28;20056;-45
2022/04/04 01:50:34;;;;;;;11.13;6.15;;;;;;;1.11;100.00;95178.69;5090821;28;20508;-44
2022/04/04 01:55:47;;;;;;;14.63;7.00;;;;;;;1.02;100.00;95170.19;5091430;28;20459;-47
2022/04/04 01:58:15;;;;;;;13.65;7.38;;;;;;;1.01;100.00;95178.03;5090942;28;20470;-46
2022/04/04 02:00:42;;;;;;;16.48;4.82;;;;;;;0.97;100.00;95166.53;5090717;28;20067;-45
2022/04/04 02:03:09;;;;;;;10.27;5.38;;;;;;;0.94;100.00;95173.56;5090892;28;20485;-45
2022/04/04 02:05:36;;;;;;;17.63;6.65;;;;;;;0.91;100.00;95173.91;5092835;28;20486;-50
2022/04/04 02:08:03;;;;;;;11.80;6.68;;;;;;;0.89;100.00;95191.22;5092659;28;20044;-46
2022/04/04 02:10:31;;;;;;;15.93;7.40;;;;;;;0.88;100.00;95173.41;5090994;28;20497;-45
2022/04/04 02:12:59;;;;;;;13.35;5.70;;;;;;;0.84;100.00;95178.06;5091366;28;20044;-50
2022/04/04 02:15:25;;;;;;;11.35;6.15;;;;;;;0.74;100.00;95172.31;5090328;28;20416;-47
2022/04/04 02:17:53;;;;;;;13.48;6.15;;;;;;;0.53;100.00;95137.72;5090567;28;20066;-46
2022/04/04 02:20:20;;;;;;;10.27;5.35;;;;;;;0.73;100.00;95165.59;5090158;28;20043;-45
2022/04/04 02:22:47;;;;;;;14.85;7.75;;;;;;;0.69;100.00;95166.88;5089228;28;20463;-48
2022/04/04 02:25:13;;;;;;;11.00;6.25;;;;;;;0.65;100.00;95174.09;5089539;28;20052;-46
2022/04/04 02:27:40;;;;;;;11.98;6.43;;;;;;;0.67;100.00;95171.38;5089740;28;20489;-49
2022/04/04 02:30:07;;;;;;;9.63;6.03;;;;;;;0.71;100.00;95177.78;5090276;28;20048;-44
2022/04/04 02:32:35;;;;;;;17.88;5.93;;;;;;;0.71;100.00;95167.50;5090233;28;20043;-47
2022/04/04 02:35:04;;;;;;;12.70;6.57;;;;;;;0.69;100.00;95174.56;5089850;28;20550;-45
2022/04/04 02:37:31;;;;;;;14.55;5.55;;;;;;;0.68;100.00;95166.06;5090186;28;20420;-46
2022/04/04 02:39:58;;;;;;;15.02;7.72;;;;;;;0.66;100.00;95159.50;5090233;28;20039;-49
2022/04/04 02:42:24;;;;;;;11.68;5.57;;;;;;;0.61;100.00;95161.75;5089956;28;20043;-47
2022/04/04 02:44:51;;;;;;;14.82;7.20;;;;;;;0.49;100.00;95159.50;5090350;28;20180;-45
2022/04/04 02:47:18;;;;;;;16.00;7.63;;;;;;;0.44;100.00;95161.75;5090423;28;20047;-46
2022/04/04 02:49:44;;;;;;;14.27;6.55;;;;;;;0.38;100.00;95159.84;5090698;28;20101;-49
2022/04/04 02:52:12;;;;;;;14.15;7.40;;;;;;;0.32;100.00;95157.88;5089578;28;20052;-45
2022/04/04 02:54:38;;;;;;;12.00;6.65;;;;;;;0.30;100.00;95164.94;5088194;28;20775;-44
2022/04/04 02:57:05;;;;;;;14.30;7.38;;;;;;;0.25;100.00;95156.91;5089027;28;20059;-46
2022/04/04 02:59:32;;;;;;;12.30;6.78;;;;;;;0.24;100.00;95160.47;5087865;28;20481;-44
2022/04/04 03:01:59;;;;;;;10.32;5.80;;;;;;;0.20;100.00;95154.84;5089348;28;20110;-46
2022/04/04 03:04:25;;;;;;;11.85;6.28;;;;;;;0.17;100.00;95161.06;5089228;28;20036;-45
2022/04/04 03:06:52;;;;;;;10.43;6.07;;;;;;;0.13;100.00;95153.88;5089212;28;20610;-46
2022/04/04 03:09:19;;;;;;;12.50;6.38;;;;;;;0.06;100.00;95158.81;5089125;28;20044;-47
2022/04/04 03:11:46;;;;;;;13.35;6.85;;;;;;;-0.03;100.00;95157.22;5089281;28;20771;-52
2022/04/04 03:14:12;;;;;;;13.43;7.10;;;;;;;-0.07;100.00;95163.63;5089932;28;20048;-48
2022/04/04 03:16:39;;;;;;;13.55;6.93;;;;;;;-0.12;100.00;95156.38;5087322;28;20529;-49
2022/04/04 03:19:06;;;;;;;13.57;7.95;;;;;;;-0.16;100.00;95152.53;5086634;28;20040;-47
2022/04/04 03:21:33;;;;;;;16.05;7.90;;;;;;;-0.21;100.00;95173.47;5087862;28;20093;-45
2022/04/04 03:23:59;;;;;;;12.23;7.00;;;;;;;-0.33;100.00;95159.34;5087939;28;20047;-49
2022/04/04 03:26:31;;;;;;;12.45;6.47;;;;;;;-0.29;100.00;95160.66;5087905;28;20047;-45
2022/04/04 03:28:58;;;;;;;11.50;6.38;;;;;;;-0.34;100.00;95173.13;5087139;28;20405;-45
2022/04/04 03:31:25;;;;;;;13.02;6.20;;;;;;;-0.37;100.00;95173.44;5087013;28;20051;-49
2022/04/04 03:33:52;;;;;;;11.50;6.28;;;;;;;-0.42;100.00;95160.28;5088206;28;20077;-46
2022/04/04 03:36:20;;;;;;;15.23;7.13;;;;;;;-0.48;100.00;95156.59;5092033;28;20881;-45
2022/04/04 03:38:47;;;;;;;10.93;6.32;;;;;;;-0.51;100.00;95166.34;5090138;28;20136;-46
2022/04/04 03:41:13;;;;;;;13.15;6.60;;;;;;;-0.53;100.00;95168.25;5088402;28;20048;-46
2022/04/04 03:43:40;;;;;;;14.57;7.25;;;;;;;-0.53;100.00;95179.28;5089714;28;20059;-46
2022/04/04 03:46:07;;;;;;;14.05;6.55;;;;;;;-0.53;100.00;95188.72;5089957;28;20051;-48
2022/04/04 03:48:34;;;;;;;12.90;6.80;;;;;;;-0.51;100.00;95191.94;5089409;28;20489;-44
2022/04/04 03:51:01;;;;;;;12.38;6.82;;;;;;;-0.52;100.00;95192.88;5090940;28;20593;-45
2022/04/04 03:53:27;;;;;;;9.50;5.80;;;;;;;-0.54;100.00;95192.22;5092699;28;20035;-47
2022/04/04 03:55:54;;;;;;;17.83;7.43;;;;;;;-0.48;100.00;95201.88;5093029;28;20058;-47
2022/04/04 03:58:21;;;;;;;19.25;8.40;;;;;;;-0.49;100.00;95205.38;5091068;28;21969;-48
2022/04/04 04:00:48;;;;;;;15.00;7.40;;;;;;;-0.47;100.00;95213.69;5092125;28;20101;-44
2022/04/04 04:03:15;;;;;;;12.98;6.78;;;;;;;-0.41;100.00;95218.22;5090155;28;20050;-45
2022/04/04 04:05:42;;;;;;;15.35;7.47;;;;;;;-0.40;100.00;95214.69;5091085;28;20543;-45
2022/04/04 04:08:09;;;;;;;17.23;7.03;;;;;;;-0.41;100.00;95218.22;5092647;28;20048;-45
2022/04/04 04:10:36;;;;;;;17.85;6.95;;;;;;;-0.30;100.00;95225.59;5092627;28;20036;-47
2022/04/04 04:13:05;;;;;;;15.15;8.10;;;;;;;-0.30;100.00;95240.97;5092430;28;20052;-45
2022/04/04 04:15:33;;;;;;;13.38;7.43;;;;;;;-0.26;100.00;95232.00;5093079;28;20505;-46
2022/04/04 04:17:59;;;;;;;15.77;7.00;;;;;;;-0.22;100.00;95238.47;5094239;28;20044;-48
2022/04/04 04:20:31;;;;;;;14.70;8.05;;;;;;;-0.16;100.00;95246.44;5091424;28;20055;-48
2022/04/04 04:23:05;;;;;;;17.25;7.03;;;;;;;-0.09;100.00;95247.44;5092087;28;20040;-50
2022/04/04 04:25:34;;;;;;;17.13;5.93;;;;;;;-0.05;100.00;95243.63;5091090;28;20050;-46
2022/04/04 04:28:03;;;;;;;12.98;6.88;;;;;;;-0.08;100.00;95238.81;5091742;28;20048;-47
2022/04/04 04:30:31;;;;;;;14.95;7.32;;;;;;;0.01;100.00;95253.25;5090611;28;20036;-46
2022/04/04 04:32:59;;;;;;;13.48;7.13;;;;;;;0.08;100.00;95254.22;5091873;28;20051;-45
2022/04/04 04:35:26;;;;;;;12.85;6.85;;;;;;;0.14;100.00;95258.72;5091881;28;20035;-44
2022/04/04 04:37:53;;;;;;;11.20;5.65;;;;;;;0.21;100.00;95258.13;5091312;28;20079;-47
2022/04/04 04:40:20;;;;;;;17.70;7.30;;;;;;;0.31;100.00;95263.91;5089802;28;20109;-46
2022/04/04 04:42:48;;;;;;;13.70;7.35;;;;;;;0.33;100.00;95267.13;5089659;28;20044;-46
2022/04/04 04:45:15;;;;;;;12.88;7.82;;;;;;;0.34;100.00;95269.53;5090242;28;20097;-45
2022/04/04 04:47:43;;;;;;;14.65;6.10;;;;;;;0.40;100.00;95264.72;5089845;28;20050;-45
2022/04/04 04:50:12;;;;;;;14.35;7.60;;;;;;;0.46;100.00;95275.16;5091573;28;20074;-48
2022/04/04 04:52:41;;;;;;;12.70;7.47;;;;;;;0.48;100.00;95275.78;5090674;28;20135;-48
2022/04/04 04:55:09;;;;;;;17.33;7.75;;;;;;;0.54;100.00;95279.47;5089325;28;20054;-51
2022/04/04 04:57:37;;;;;;;15.18;6.47;;;;;;;0.59;100.00;95271.34;5090254;28;20451;-47
2022/04/04 05:00:05;;;;;;;9.13;5.90;;;;;;;0.57;100.00;95274.84;5086627;28;20054;-47
2022/04/04 05:02:34;;;;;;;13.25;6.95;;;;;;;0.56;100.00;95280.16;5089792;28;20043;-47
2022/04/04 05:05:02;;;;;;;11.68;6.32;;;;;;;0.62;100.00;95276.16;5088658;28;20055;-45
2022/04/04 05:07:29;;;;;;;14.35;8.30;;;;;;;0.60;100.00;95283.19;5087244;28;20055;-48
2022/04/04 05:09:56;;;;;;;16.38;9.52;;;;;;;0.62;100.00;95281.28;5085040;28;20044;-46
2022/04/04 05:12:23;;;;;;;14.15;7.72;;;;;;;0.65;100.00;95280.94;5086810;28;20039;-48
2022/04/04 05:14:50;;;;;;;14.35;7.45;;;;;;;0.69;100.00;95279.69;5086828;28;20158;-48
2022/04/04 05:17:17;;;;;;;17.58;7.57;;;;;;;0.77;100.00;95279.69;5092344;28;20101;-45
2022/04/04 05:19:43;;;;;;;11.13;6.80;;;;;;;0.80;100.00;95274.25;5092303;28;20049;-49
2022/04/04 05:22:10;;;;;;;14.32;6.80;;;;;;;0.83;100.00;95271.38;5092639;28;20044;-47
2022/04/04 05:24:37;;;;;;;18.27;8.23;;;;;;;0.82;100.00;95277.44;5092724;28;20075;-49
2022/04/04 05:27:04;;;;;;;18.52;8.63;;;;;;;0.88;100.00;95276.81;5091034;28;20666;-45
2022/04/04 05:29:31;;;;;;;21.30;9.18;;;;;;;0.89;99.31;95270.72;5093611;28;20051;-48
2022/04/04 05:31:57;;;;;;;15.45;8.15;;;;;;;1.01;99.63;95285.78;5092602;28;20130;-47
2022/04/04 05:34:28;;;;;;;10.93;6.05;;;;;;;1.09;99.52;95290.94;5089231;28;20051;-46
2022/04/04 05:36:58;;;;;;;13.23;7.50;;;;;;;1.11;99.02;95286.44;5091363;28;20158;-50
2022/04/04 05:39:25;;;;;;;17.00;8.20;;;;;;;1.15;98.53;95308.22;5088496;28;20473;-50
2022/04/04 05:41:52;;;;;;;10.18;5.95;;;;;;;1.16;97.93;95306.50;5089370;28;20036;-49
2022/04/04 05:44:19;;;;;;;9.73;5.55;;;;;;;1.15;97.45;95313.34;5089939;28;20052;-46
2022/04/04 05:46:47;;;;;;;13.70;6.43;;;;;;;1.10;98.09;95310.50;5090187;28;20044;-48
2022/04/04 05:49:15;;;;;;;11.13;5.50;;;;;;;1.15;97.96;95308.22;5089792;28;20048;-50
2022/04/04 05:51:42;;;;;;;10.05;5.80;;;;;;;1.19;97.88;95314.66;5089230;28;20119;-46
2022/04/04 05:54:27;;;;;;;8.88;5.43;;;;;;;1.25;97.37;95326.84;5089626;28;20098;-45
2022/04/04 05:56:54;;;;;;;15.02;7.15;;;;;;;1.25;97.35;95319.16;5089266;28;20058;-49
2022/04/04 05:59:23;;;;;;;13.13;6.50;;;;;;;1.35;97.83;95334.38;5086611;28;20055;-49
2022/04/04 06:01:50;;;;;;;12.57;6.35;;;;;;;1.36;97.88;95330.06;5082298;28;20501;-50
2022/04/04 06:04:17;;;;;;;11.35;6.25;;;;;;;1.46;97.95;95330.66;5079190;28;20051;-47
2022/04/04 06:06:43;;;;;;;11.00;6.50;;;;;;;1.52;98.00;95335.19;5083722;28;20117;-45
2022/04/04 06:09:10;;;;;;;12.40;6.85;;;;;;;1.64;97.87;95323.59;5088383;28;20200;-51
2022/04/04 06:11:37;;;;;;;12.75;7.15;;;;;;;1.69;97.13;95318.78;5088792;28;20043;-50
2022/04/04 06:14:04;;;;;;;12.48;7.15;;;;;;;1.76;96.52;95323.25;5087897;28;20055;-49
2022/04/04 06:16:31;;;;;;;12.40;6.30;;;;;;;1.75;95.23;95313.94;5091872;28;21317;-47
2022/04/04 06:18:59;;;;;;;14.95;8.60;;;;;;;1.82;95.59;95304.63;5065731;28;20067;-47
2022/04/04 06:21:26;;;;;;;13.63;7.50;;;;;;;1.96;94.61;95314.22;5087745;28;20047;-45
2022/04/04 06:23:52;;;;;;;12.70;6.55;;;;;;;2.05;93.92;95315.00;5088906;28;20076;-50
2022/04/04 06:26:19;;;;;;;12.10;6.38;;;;;;;2.08;91.50;95309.53;5089055;28;20058;-47
2022/04/04 06:28:47;;;;;;;10.70;5.95;;;;;;;2.12;92.09;95304.84;5090399;28;20063;-48
2022/04/04 06:31:14;;;;;;;14.45;7.25;;;;;;;2.27;92.09;95303.19;5089469;28;20425;-46
2022/04/04 06:33:41;;;;;;;15.18;6.10;;;;;;;2.40;91.13;95302.66;5088327;28;20421;-46
2022/04/04 06:36:07;;;;;;;14.45;7.32;;;;;;;2.55;90.09;95295.03;5087662;28;20052;-46
2022/04/04 06:38:34;;;;;;;10.52;5.88;;;;;;;2.70;88.88;95301.03;5086988;28;20134;-48
2022/04/04 06:41:01;;;;;;;20.38;9.02;;;;;;;2.61;87.66;95284.03;5086272;28;20064;-49
2022/04/04 06:43:28;;;;;;;13.82;6.88;;;;;;;2.84;88.28;95309.78;5085695;28;20056;-48
2022/04/04 06:45:54;;;;;;;13.13;6.88;;;;;;;2.97;86.33;95309.22;5088495;28;20051;-48
2022/04/04 06:48:23;;;;;;;9.65;6.22;;;;;;;2.98;86.29;95303.13;5087460;28;20047;-47
2022/04/04 06:50:50;;;;;;;15.48;7.30;;;;;;;2.98;87.95;95315.97;5087068;28;20036;-48
2022/04/04 06:53:21;;;;;;;11.02;6.40;;;;;;;3.07;88.14;95314.94;5090898;28;20044;-50
2022/04/04 06:55:49;;;;;;;11.32;6.43;;;;;;;3.14;86.07;95321.00;5064987;28;20048;-47
2022/04/04 06:58:16;;;;;;;15.90;8.02;;;;;;;3.20;85.67;95322.88;5088074;28;20409;-48
2022/04/04 07:00:45;;;;;;;18.05;8.50;;;;;;;3.22;85.92;95320.97;5086418;28;20101;-48
2022/04/04 07:03:11;;;;;;;14.50;7.93;;;;;;;3.37;86.23;95315.06;5085001;28;20044;-48
2022/04/04 07:05:38;;;;;;;14.70;7.90;;;;;;;3.60;87.06;95320.97;5087639;28;20036;-48
2022/04/04 07:08:06;;;;;;;15.05;8.20;;;;;;;3.70;86.53;95325.06;5087476;28;20052;-49
2022/04/04 07:10:33;;;;;;;12.73;6.50;;;;;;;3.96;83.51;95322.03;5086739;28;20491;-48
2022/04/04 07:13:01;;;;;;;14.45;8.35;;;;;;;4.09;83.57;95329.16;5089628;28;20040;-52
2022/04/04 07:15:28;;;;;;;11.48;6.93;;;;;;;3.90;84.07;95315.81;5087432;28;20046;-49
2022/04/04 07:17:54;;;;;;;13.77;7.90;;;;;;;3.80;83.91;95335.91;5087509;28;20040;-51
2022/04/04 07:20:21;;;;;;;15.93;7.30;;;;;;;3.84;84.12;95321.69;5089078;28;20043;-47
2022/04/04 07:22:48;;;;;;;12.82;6.78;;;;;;;3.86;82.72;95324.91;5087363;28;20122;-51
2022/04/04 07:25:15;;;;;;;13.60;7.00;;;;;;;3.96;82.71;95325.44;5086907;28;20173;-50
2022/04/04 07:27:45;;;;;;;20.25;8.25;;;;;;;4.27;84.59;95337.34;5087246;28;20094;-49
2022/04/04 07:30:17;;;;;;;8.13;5.45;;;;;;;4.42;79.56;95334.75;5087849;28;20122;-48
2022/04/04 07:32:45;;;;;;;15.55;6.82;;;;;;;4.53;79.80;95328.34;5086731;28;20048;-51
2022/04/04 07:35:12;;;;;;;13.57;6.90;;;;;;;4.70;78.26;95334.88;5088174;28;20085;-46
2022/04/04 07:37:41;;;;;;;13.35;4.93;;;;;;;4.88;76.40;95338.81;5086736;28;20489;-48
2022/04/04 07:40:16;;;;;;;10.80;6.53;;;;;;;4.94;76.60;95343.28;5087051;28;20052;-49
2022/04/04 07:42:45;;;;;;;16.05;7.22;;;;;;;4.87;76.82;95347.56;5088195;28;20141;-47
2022/04/04 07:45:13;;;;;;;15.52;7.85;;;;;;;5.09;76.38;95349.19;5087221;28;20065;-49
2022/04/04 07:47:41;;;;;;;8.82;4.72;;;;;;;5.02;76.21;95335.41;5082801;28;20043;-48
2022/04/04 07:50:11;;;;;;;10.65;6.45;;;;;;;5.33;75.55;95352.38;5088117;28;20796;-49
2022/04/04 07:52:37;;;;;;;22.08;10.15;;;;;;;5.46;76.40;95357.69;5086958;28;20124;-50
2022/04/04 07:55:05;;;;;;;10.75;6.60;;;;;;;5.53;72.17;95353.38;5084811;28;20070;-47
2022/04/04 07:57:32;;;;;;;10.35;5.90;;;;;;;5.55;70.49;95356.56;5091090;28;20100;-47
2022/04/04 07:59:58;;;;;;;11.43;6.30;;;;;;;5.68;69.04;95349.91;5087750;28;20047;-50
2022/04/04 08:02:25;;;;;;;12.48;6.97;;;;;;;5.75;68.54;95361.09;5087693;28;20042;-46
2022/04/04 08:04:52;;;;;;;9.40;5.85;;;;;;;5.83;64.79;95358.34;5090082;28;20047;-49
2022/04/04 08:07:19;;;;;;;11.00;5.80;;;;;;;6.11;63.17;95365.34;5066482;28;20056;-51
2022/04/04 08:09:47;;;;;;;6.82;4.55;;;;;;;6.20;62.34;95366.78;5065997;28;20141;-48
2022/04/04 08:12:14;;;;;;;12.88;6.65;;;;;;;6.37;62.11;95361.31;5089871;28;20040;-47
2022/04/04 08:14:40;;;;;;;9.50;5.55;;;;;;;6.56;59.18;95345.09;5088892;28;20047;-48
2022/04/04 08:17:08;;;;;;;14.23;7.18;;;;;;;6.74;58.86;95348.94;5090095;28;20044;-47
2022/04/04 08:19:35;;;;;;;5.90;3.20;;;;;;;6.74;57.10;95354.13;5086579;28;20040;-49
2022/04/04 08:22:03;;;;;;;10.38;5.22;;;;;;;6.59;58.36;95347.28;5089133;28;20047;-46
2022/04/04 08:24:30;;;;;;;12.18;6.55;;;;;;;6.62;59.59;95346.88;5086995;28;20131;-47
2022/04/04 08:26:57;;;;;;;11.15;5.80;;;;;;;6.76;60.09;95336.59;5090801;28;20227;-51
2022/04/04 08:29:25;;;;;;;13.85;6.20;;;;;;;6.99;58.13;95334.47;5091849;28;20424;-49
2022/04/04 08:31:52;;;;;;;8.15;4.80;;;;;;;6.97;57.24;95341.66;5092002;28;20077;-47
2022/04/04 08:34:19;;;;;;;7.93;4.78;;;;;;;6.97;56.85;95333.88;5093008;28;20047;-49
2022/04/04 08:36:46;;;;;;;10.95;6.03;;;;;;;6.89;58.07;95332.25;5093327;28;20144;-47
2022/04/04 08:39:13;;;;;;;12.30;6.00;;;;;;;6.90;56.69;95327.88;5090604;28;20051;-47
2022/04/04 08:41:41;;;;;;;9.82;5.78;;;;;;;6.93;54.85;95322.28;5090838;28;20051;-51
2022/04/04 08:44:08;;;;;;;16.10;6.72;;;;;;;7.17;57.28;95318.38;5091580;28;20055;-47
2022/04/04 08:46:35;;;;;;;8.00;5.00;;;;;;;7.41;54.63;95314.41;5089653;28;20054;-48
2022/04/04 08:49:06;;;;;;;8.85;4.00;;;;;;;7.16;54.98;95308.19;5068482;28;20085;-50
2022/04/04 08:51:35;;;;;;;6.97;4.28;;;;;;;6.95;53.56;95309.16;5092477;28;20047;-47
2022/04/04 08:54:02;;;;;;;9.00;5.00;;;;;;;7.18;54.56;95298.44;5069449;28;20036;-50
2022/04/04 08:56:29;;;;;;;16.88;6.88;;;;;;;7.46;54.94;95306.81;5091544;28;20117;-48
2022/04/04 08:58:57;;;;;;;9.65;5.53;;;;;;;7.25;53.83;95289.66;5089975;28;20420;-48
2022/04/04 09:01:27;;;;;;;10.55;5.75;;;;;;;7.43;53.77;95302.03;5087259;28;20039;-49
2022/04/04 09:04:00;;;;;;;9.48;5.63;;;;;;;7.69;54.71;95290.06;5090449;28;20602;-49
2022/04/04 09:06:28;;;;;;;10.68;4.85;;;;;;;7.73;51.51;95296.44;5090703;28;20051;-46
2022/04/04 09:08:56;;;;;;;8.68;4.25;;;;;;;7.70;52.49;95281.28;5091207;28;20082;-49
2022/04/04 09:11:23;;;;;;;11.35;6.57;;;;;;;7.79;53.22;95287.84;5091551;28;20036;-48
2022/04/04 09:14:06;;;;;;;13.68;5.93;;;;;;;7.88;54.09;95274.69;5091129;28;20048;-48
2022/04/04 09:16:33;;;;;;;10.20;5.07;;;;;;;7.76;52.19;95283.09;5090306;28;20063;-48
2022/04/04 09:19:00;;;;;;;13.98;6.47;;;;;;;7.96;51.98;95277.03;5092538;28;20051;-49
2022/04/04 09:21:31;;;;;;;9.82;6.07;;;;;;;7.96;51.76;95271.84;5092286;28;20040;-45
2022/04/04 09:24:03;;;;;;;8.95;5.65;;;;;;;7.97;51.48;95276.06;5092454;28;20505;-47
2022/04/04 09:26:50;;;;;;;8.98;4.65;;;;;;;8.06;52.41;95272.25;5090509;28;20124;-48
2022/04/04 09:29:19;;;;;;;7.15;5.18;;;;;;;8.07;51.56;95268.66;5091818;28;21015;-49
2022/04/04 09:32:05;;;;;;;9.77;5.15;;;;;;;7.94;53.83;95271.25;5088518;28;20570;-54
2022/04/04 09:34:52;;;;;;;12.45;6.13;;;;;;;8.28;52.94;95271.97;5089586;28;20036;-45
2022/04/04 09:37:21;;;;;;;21.52;10.45;;;;;;;7.88;51.65;95252.13;5091364;28;20526;-45
2022/04/04 09:40:01;;;;;;;83.30;25.42;;;;;;;8.14;50.96;95261.66;5091368;28;20058;-51
2022/04/04 09:42:39;;;;;;;76.55;17.77;;;;;;;8.30;50.30;95260.41;5091070;28;20554;-46
2022/04/04 09:45:12;;;;;;;116.43;33.03;;;;;;;8.31;52.13;95256.00;5089359;28;20056;-45
2022/04/04 09:47:47;;;;;;;48.42;18.85;;;;;;;8.23;51.68;95260.41;5090092;28;20070;-49
2022/04/04 09:50:38;;;;;;;11.13;5.97;;;;;;;8.47;52.06;95249.56;5092047;28;20047;-46
2022/04/04 09:53:13;;;;;;;10.38;4.47;;;;;;;8.60;50.18;95255.47;5092078;28;20042;-51
2022/04/04 09:55:46;;;;;;;10.60;6.13;;;;;;;8.73;51.83;95238.25;5089885;28;20080;-44
2022/04/04 09:58:15;;;;;;;10.27;6.47;;;;;;;9.04;50.45;95249.63;5090396;28;20036;-45
2022/04/04 10:00:44;;;;;;;13.15;6.78;;;;;;;9.14;51.10;95242.97;5086218;28;20044;-45
2022/04/04 10:03:12;;;;;;;10.45;6.35;;;;;;;9.26;48.31;95237.09;5089709;28;20042;-45
2022/04/04 10:05:42;;;;;;;7.15;4.78;;;;;;;9.53;47.44;95227.28;5090159;28;20036;-44
2022/04/04 10:08:13;;;;;;;10.10;5.13;;;;;;;9.41;50.55;95228.97;5091117;28;20417;-45
2022/04/04 10:10:41;;;;;;;8.95;5.00;;;;;;;9.42;47.88;95230.53;5090491;28;20040;-45
2022/04/04 10:13:11;;;;;;;8.80;4.80;;;;;;;9.47;47.78;95222.91;5088832;28;20455;-49
2022/04/04 10:15:39;;;;;;;9.82;6.18;;;;;;;9.54;47.76;95221.03;5092412;28;20420;-45
2022/04/04 10:18:06;;;;;;;9.43;4.53;;;;;;;9.56;48.75;95208.63;5088918;28;20048;-45
2022/04/04 10:20:34;;;;;;;8.20;5.43;;;;;;;9.38;49.12;95217.19;5090421;28;20042;-49
2022/04/04 10:23:03;;;;;;;7.05;4.07;;;;;;;9.48;49.92;95214.09;5066620;28;20054;-49
2022/04/04 10:25:32;;;;;;;8.77;4.45;;;;;;;9.50;47.02;95207.69;5088267;28;20631;-49
2022/04/04 10:27:59;;;;;;;8.60;5.07;;;;;;;9.41;46.91;95197.78;5086341;28;20051;-44
2022/04/04 10:30:40;;;;;;;8.10;4.80;;;;;;;9.74;47.16;95197.44;5085482;28;20081;-46
2022/04/04 10:33:23;;;;;;;6.28;4.10;;;;;;;9.82;46.49;95178.16;5091639;28;20526;-45
2022/04/04 10:36:22;;;;;;;6.43;4.47;;;;;;;10.21;45.46;95181.28;5089406;28;20137;-47
2022/04/04 10:38:55;;;;;;;8.25;4.32;;;;;;;10.06;46.76;95192.09;5089871;28;20383;-46
2022/04/04 10:41:27;;;;;;;8.02;4.63;;;;;;;9.68;48.23;95183.50;5087922;28;20745;-45
2022/04/04 10:43:55;;;;;;;13.00;6.57;;;;;;;9.94;47.07;95189.44;5088139;28;20056;-44
2022/04/04 10:46:24;;;;;;;8.40;5.50;;;;;;;10.01;46.42;95179.75;5088675;28;20043;-46
2022/04/04 10:48:53;;;;;;;11.60;3.97;;;;;;;10.22;47.04;95182.91;5086478;28;20059;-45
2022/04/04 10:51:34;;;;;;;5.80;4.18;;;;;;;10.17;46.33;95175.72;5082799;28;20035;-46
2022/04/04 10:54:07;;;;;;;8.80;5.28;;;;;;;10.34;44.38;95175.97;5087451;28;20429;-49
2022/04/04 10:56:39;;;;;;;9.77;6.83;;;;;;;10.13;45.17;95180.59;5088794;28;20051;-45
2022/04/04 10:59:14;;;;;;;12.73;5.00;;;;;;;10.28;44.12;95182.00;5089559;28;20044;-46
2022/04/04 11:01:43;;;;;;;13.10;6.15;;;;;;;10.22;44.98;95172.47;5084458;28;20031;-46
2022/04/04 11:04:29;;;;;;;7.72;4.35;;;;;;;9.88;45.74;95170.25;5088402;28;20043;-46
2022/04/04 11:10:06;;;;;;;9.60;5.22;;;;;;;9.82;46.93;95172.97;5087082;28;20067;-46
2022/04/04 11:13:05;;;;;;;5.82;4.07;;;;;;;10.08;45.39;95162.25;5086593;28;20060;-50
2022/04/04 11:15:49;;;;;;;7.45;4.10;;;;;;;10.38;45.32;95169.28;5090218;28;20035;-50
2022/04/04 11:18:16;;;;;;;;;;;;;;;10.28;44.05;95174.19;5090699;28;20090;-48
2022/04/04 11:20:59;;;;;;;5.85;4.10;;;;;;;10.26;46.34;95163.22;5089390;28;20388;-52
2022/04/04 11:23:37;;;;;;;9.23;5.22;;;;;;;10.55;44.60;95176.47;5089234;28;20044;-48
2022/04/04 11:26:05;;;;;;;6.95;3.97;;;;;;;10.54;43.89;95154.84;5088056;28;20507;-45
2022/04/04 11:28:35;;;;;;;8.23;4.22;;;;;;;10.94;43.30;95158.69;5087044;28;20165;-45
2022/04/04 11:31:10;;;;;;;8.77;4.45;;;;;;;11.32;43.53;95154.84;5088769;28;20048;-46
2022/04/04 11:33:47;;;;;;;8.02;4.95;;;;;;;11.01;43.25;95146.34;5088961;28;20059;-46
2022/04/04 11:36:27;;;;;;;8.43;4.82;;;;;;;10.73;43.88;95145.16;5088107;28;20032;-45
2022/04/04 11:38:59;;;;;;;7.03;4.28;;;;;;;10.74;43.56;95133.72;5087454;28;20118;-44
2022/04/04 11:41:25;;;;;;;9.73;5.25;;;;;;;11.11;44.57;95133.56;5088781;28;20043;-46
2022/04/04 11:43:52;;;;;;;8.07;5.03;;;;;;;10.92;43.59;95124.25;5087829;28;20078;-44
2022/04/04 11:46:19;;;;;;;7.10;4.63;;;;;;;11.12;43.24;95127.31;5091118;28;20048;-44